עמוד ראשי
METAR-TAF:

METAR-TAF

שדות תעופה :

קונספסיון, צ'ילה

קו רוחב: 36-46S, קו אורך: 073-03W, גובה: 12מטר

תצפית מזג אוויר נוכחית

הדו"ח נערך לפני 1 שעות ו 5דקות, בשעה 10:00 UTC
רוח 5קשר מכיוון דרום
טמפרטורת 2 צלסיוס
לחות 100%
לחץ 1022 hPa
ראות 10 קילומטר או יותר
ללא עננים שבסיסם נמוך מ 5000 רגל או קומולונימבוס

METAR: SCIE 241000Z 19005KT CAVOK 02/02 Q1022

זמן: 07:05 (11:05 UTC)

תחזית

הדו"ח נערך לפני 6 שעות ו 56דקות, בשעה 04:09 UTC
תחזית בתוקף מ 24 ב 06 UTC עד 25 ב 06 UTC
רוח 5קשר מכיוון מערב
ראות 10 קילומטר או יותר
מעט עננים בגובה 1500רגל
זמנית מ -
24 ב 08 UTC עד 24 ב 12 UTC
ראות: 3000מטר
עננים פזורים בגובה 500רגל
אד
יעשה מ
24 ב 16 UTC עד 24 ב 18 UTC
רוח 10קשר מכיוון דרום-מערב
ראות 10 קילומטר או יותר
ללא עננים שבסיסם נמוך מ 5000 רגל או קומולונימבוס
יעשה מ
25 ב 01 UTC עד 25 ב 03 UTC
רוח 4קשר מכיוון דרום/דרום-מזרח

TAF: SCIE 240409Z 2406/2506 26005KT 9999 FEW015 TX11/2418Z TN01/2411Z TEMPO 2408/2412 3000 BR SCT005 BECMG 2416/2418 23010KT CAVOK BECMG 2501/2503 15004KT

תצפיות ותחזיות מזג אוויר לגבי יותר מ- 4,000 שדות תעופה ברחבי העולם. דוחות METAR ו- TAF.

התחנות הזמינות מסומנות בנקודות צהובות ואדומות על גבי המפה.

העבר את העכבר לנקודה הצבעונית על מנת לראות את שם התחנה.

לאחר מכן, לחץ כדי לראות את תוכן ואת תחזיות מזג האוויר.

כדי לשנות את המפה: לחץ על הכפתורים הירוקים עם הפלוס השחור כדי להתקרב; על הכפתור הירוק עם המקף כדי להתרחק; או בחיצים הירוקים למפות סמוכות.


METAR-TAF: